createdAt,value
2019-05-21T00:01:21.654Z,8.68
2019-05-21T00:03:51.153Z,8.15
2019-05-21T00:06:20.529Z,7.28
2019-05-21T00:08:49.922Z,6.30
2019-05-21T00:11:19.420Z,6.10
2019-05-21T00:13:50.431Z,5.67
2019-05-21T00:16:19.821Z,6.35
2019-05-21T00:18:49.259Z,6.45
2019-05-21T00:21:18.625Z,7.57
2019-05-21T00:23:48.323Z,5.95
2019-05-21T00:26:17.786Z,6.50
2019-05-21T00:29:23.997Z,6.50
2019-05-21T00:32:29.678Z,5.83
2019-05-21T00:35:49.242Z,6.75
2019-05-21T00:38:54.893Z,6.45
2019-05-21T00:42:09.319Z,6.42
2019-05-21T00:44:43.112Z,5.75
2019-05-21T00:47:13.572Z,7.20
2019-05-21T00:49:42.985Z,5.33
2019-05-21T00:52:12.414Z,5.27
2019-05-21T00:54:41.954Z,5.65
2019-05-21T00:57:13.162Z,6.43
2019-05-21T00:59:42.583Z,6.23
2019-05-21T01:02:12.085Z,6.47
2019-05-21T01:04:41.512Z,5.85
2019-05-21T01:07:10.952Z,6.40
2019-05-21T01:09:40.303Z,6.70
2019-05-21T01:12:09.713Z,7.53
2019-05-21T01:14:39.189Z,6.37
2019-05-21T01:17:09.643Z,6.28
2019-05-21T01:19:39.120Z,5.95
2019-05-21T01:22:08.546Z,6.50
2019-05-21T01:24:37.944Z,5.55
2019-05-21T01:27:07.279Z,6.97
2019-05-21T01:29:36.715Z,5.42
2019-05-21T01:32:08.989Z,5.58
2019-05-21T01:34:38.445Z,5.85
2019-05-21T01:37:07.817Z,6.05
2019-05-21T01:39:37.188Z,5.67
2019-05-21T01:42:07.579Z,5.75
2019-05-21T01:44:37.066Z,4.80
2019-05-21T01:47:06.437Z,5.78
2019-05-21T01:49:35.867Z,4.95
2019-05-21T01:52:05.287Z,6.58
2019-05-21T01:54:34.711Z,5.57
2019-05-21T01:57:04.565Z,4.67
2019-05-21T01:59:36.663Z,5.15
2019-05-21T02:02:06.028Z,7.03
2019-05-21T02:04:35.412Z,5.03
2019-05-21T02:07:05.815Z,5.28
2019-05-21T02:09:36.943Z,5.58
2019-05-21T02:12:06.469Z,6.12
2019-05-21T02:14:35.970Z,5.53
2019-05-21T02:17:05.437Z,6.72
2019-05-21T02:19:34.864Z,5.95
2019-05-21T02:22:04.325Z,5.22
2019-05-21T02:24:33.691Z,6.20
2019-05-21T02:27:06.086Z,8.10
2019-05-21T02:29:35.503Z,7.05
2019-05-21T02:32:05.396Z,6.60
2019-05-21T02:34:36.421Z,6.10
2019-05-21T02:37:06.557Z,5.17
2019-05-21T02:39:36.070Z,5.35
2019-05-21T02:42:05.899Z,5.55
2019-05-21T02:44:35.293Z,3.95
2019-05-21T02:47:04.729Z,5.37
2019-05-21T02:49:34.201Z,3.90
2019-05-21T02:52:03.703Z,3.67
2019-05-21T02:54:41.124Z,3.85
2019-05-21T02:59:36.118Z,3.45
2019-05-21T03:02:07.266Z,3.98
2019-05-21T03:04:36.706Z,4.47
2019-05-21T03:07:18.520Z,3.45
2019-05-21T03:09:52.552Z,3.42
2019-05-21T03:12:21.999Z,3.52
2019-05-21T03:14:51.347Z,3.15
2019-05-21T03:17:20.849Z,4.67
2019-05-21T03:19:54.683Z,4.00
2019-05-21T03:22:24.023Z,4.10
2019-05-21T03:24:53.501Z,4.10
2019-05-21T03:27:22.920Z,4.15
2019-05-21T03:29:52.335Z,4.92
2019-05-21T03:32:23.565Z,4.83
2019-05-21T03:34:52.990Z,5.15
2019-05-21T03:37:23.440Z,5.33
2019-05-21T03:39:52.830Z,5.78
2019-05-21T03:42:22.271Z,5.00
2019-05-21T03:44:59.850Z,3.72
2019-05-21T03:47:22.825Z,5.20
2019-05-21T03:49:53.024Z,4.30
2019-05-21T03:52:24.151Z,4.60
2019-05-21T03:54:54.195Z,4.17
2019-05-21T03:57:23.889Z,4.17
2019-05-21T03:59:53.293Z,4.25
2019-05-21T04:02:22.751Z,4.87
2019-05-21T04:04:52.189Z,5.03
2019-05-21T04:07:21.633Z,5.80
2019-05-21T04:09:51.066Z,5.20
2019-05-21T04:12:20.428Z,4.47
2019-05-21T04:14:55.119Z,5.53
2019-05-21T04:17:34.698Z,5.62
2019-05-21T04:20:04.505Z,6.28
2019-05-21T04:22:33.991Z,5.23
2019-05-21T04:25:04.028Z,5.92
2019-05-21T04:27:33.503Z,4.95
2019-05-21T04:30:03.193Z,4.22
2019-05-21T04:32:33.748Z,3.83
2019-05-21T04:35:03.527Z,4.28
2019-05-21T04:37:32.958Z,3.92
2019-05-21T04:40:02.472Z,4.87
2019-05-21T04:42:32.071Z,4.20
2019-05-21T04:45:01.496Z,5.60
2019-05-21T04:47:30.934Z,5.95
2019-05-21T04:50:00.435Z,5.25
2019-05-21T04:52:29.882Z,5.65
2019-05-21T04:55:02.107Z,5.55
2019-05-21T04:57:31.552Z,5.47
2019-05-21T05:00:00.902Z,6.47
2019-05-21T05:02:30.349Z,5.92
2019-05-21T05:04:59.708Z,5.60
2019-05-21T05:07:29.150Z,5.87
2019-05-21T05:09:58.570Z,6.00
2019-05-21T05:12:28.808Z,5.80
2019-05-21T05:14:58.254Z,5.70
2019-05-21T05:17:30.397Z,5.95
2019-05-21T05:19:59.934Z,5.53
2019-05-21T05:22:29.436Z,6.75
2019-05-21T05:24:59.969Z,5.42
2019-05-21T05:27:29.343Z,4.53
2019-05-21T05:29:58.837Z,6.12
2019-05-21T05:32:30.857Z,5.25
2019-05-21T05:35:00.328Z,5.08
2019-05-21T05:37:42.845Z,5.05
2019-05-21T05:40:00.891Z,5.90
2019-05-21T05:42:30.404Z,6.70
2019-05-21T05:45:00.011Z,6.20
2019-05-21T05:47:29.371Z,5.67
2019-05-21T05:50:01.437Z,5.63
2019-05-21T05:52:30.921Z,6.33
2019-05-21T05:55:00.267Z,5.92
2019-05-21T05:57:29.705Z,6.53
2019-05-21T05:59:59.125Z,6.28
2019-05-21T06:02:28.463Z,5.45
2019-05-21T06:04:57.865Z,5.40
2019-05-21T06:07:27.299Z,7.00
2019-05-21T06:09:56.660Z,6.15
2019-05-21T06:12:27.230Z,6.10
2019-05-21T06:14:56.656Z,6.20
2019-05-21T06:17:29.448Z,6.92
2019-05-21T06:19:58.917Z,5.03
2019-05-21T06:22:28.352Z,6.17
2019-05-21T06:24:57.760Z,5.70
2019-05-21T06:27:34.855Z,6.00
2019-05-21T06:29:59.683Z,6.83
2019-05-21T06:32:30.722Z,6.55
2019-05-21T06:35:00.124Z,6.03
2019-05-21T06:37:29.557Z,7.08
2019-05-21T06:39:59.143Z,4.87
2019-05-21T06:42:28.575Z,5.85
2019-05-21T06:44:57.941Z,6.72
2019-05-21T06:47:27.347Z,6.80
2019-05-21T06:49:56.752Z,6.67
2019-05-21T06:52:26.117Z,6.47
2019-05-21T06:54:55.607Z,7.37
2019-05-21T06:57:25.147Z,6.78
2019-05-21T06:59:54.580Z,6.30
2019-05-21T07:02:24.022Z,6.35
2019-05-21T07:04:53.534Z,6.92
2019-05-21T07:07:22.973Z,6.67
2019-05-21T07:09:52.435Z,7.30
2019-05-21T07:12:21.928Z,6.93
2019-05-21T07:14:51.398Z,7.62
2019-05-21T07:17:20.773Z,6.83
2019-05-21T07:19:50.131Z,6.05
2019-05-21T07:22:22.630Z,6.10
2019-05-21T07:24:52.076Z,5.33
2019-05-21T07:27:24.200Z,5.90
2019-05-21T07:29:55.299Z,5.50
2019-05-21T07:32:24.701Z,4.93
2019-05-21T07:34:54.233Z,4.80
2019-05-21T07:37:23.751Z,3.80
2019-05-21T07:39:53.250Z,5.35
2019-05-21T07:42:22.684Z,4.97
2019-05-21T07:44:52.201Z,7.90
2019-05-21T07:47:21.629Z,7.15
2019-05-21T07:49:51.007Z,6.45
2019-05-21T07:52:20.419Z,6.15
2019-05-21T07:54:49.806Z,5.45
2019-05-21T07:57:19.167Z,4.70
2019-05-21T07:59:48.532Z,5.97
2019-05-21T08:02:17.939Z,4.40
2019-05-21T08:04:47.363Z,4.42
2019-05-21T08:07:16.899Z,4.80
2019-05-21T08:09:46.327Z,4.92
2019-05-21T08:12:35.380Z,5.58
2019-05-21T08:14:46.835Z,5.53
2019-05-21T08:17:16.310Z,6.17
2019-05-21T08:19:47.767Z,6.37
2019-05-21T08:22:16.955Z,6.73
2019-05-21T08:24:49.020Z,5.72
2019-05-21T08:27:18.558Z,6.20
2019-05-21T08:29:49.560Z,5.80
2019-05-21T08:32:19.032Z,5.60
2019-05-21T08:34:48.451Z,5.45
2019-05-21T08:37:17.829Z,4.25
2019-05-21T08:39:50.106Z,5.85
2019-05-21T08:42:22.214Z,5.20
2019-05-21T08:44:51.679Z,4.33
2019-05-21T08:47:21.107Z,4.67
2019-05-21T08:49:50.536Z,3.90
2019-05-21T08:52:21.159Z,4.28
2019-05-21T08:54:51.225Z,4.65
2019-05-21T08:57:20.764Z,4.73
2019-05-21T08:59:50.218Z,4.17
2019-05-21T09:02:21.001Z,4.10
2019-05-21T09:04:50.474Z,4.70
2019-05-21T09:07:19.867Z,4.72
2019-05-21T09:09:51.559Z,4.80
2019-05-21T09:12:20.407Z,4.97
2019-05-21T09:14:49.947Z,5.12
2019-05-21T09:17:19.473Z,4.22
2019-05-21T09:19:48.916Z,4.33
2019-05-21T09:22:18.349Z,4.17
2019-05-21T09:24:47.712Z,4.50
2019-05-21T09:27:17.168Z,4.50
2019-05-21T09:29:46.587Z,4.37
2019-05-21T09:32:15.972Z,5.17
2019-05-21T09:34:49.273Z,4.42
2019-05-21T09:37:20.109Z,5.17
2019-05-21T09:39:49.119Z,4.03
2019-05-21T09:42:20.276Z,5.03
2019-05-21T09:44:50.849Z,3.65
2019-05-21T09:47:24.427Z,3.77
2019-05-21T09:49:54.676Z,3.40
2019-05-21T09:52:25.278Z,4.47
2019-05-21T09:54:54.751Z,5.03
2019-05-21T09:57:28.514Z,4.37
2019-05-21T10:00:05.365Z,4.00
2019-05-21T10:02:35.971Z,5.10
2019-05-21T10:05:06.352Z,3.77
2019-05-21T10:07:39.737Z,3.27
2019-05-21T10:10:08.768Z,4.90
2019-05-21T10:12:39.779Z,3.65
2019-05-21T10:15:09.339Z,4.20
2019-05-21T10:17:38.696Z,3.52
2019-05-21T10:20:08.297Z,3.62
2019-05-21T10:22:37.748Z,3.80
2019-05-21T10:25:07.551Z,2.85
2019-05-21T10:27:38.748Z,2.72
2019-05-21T10:30:08.730Z,3.13
2019-05-21T10:32:40.580Z,2.65
2019-05-21T10:35:09.482Z,3.30
2019-05-21T10:37:53.746Z,2.80
2019-05-21T10:40:10.645Z,1.93
2019-05-21T10:42:41.832Z,2.42
2019-05-21T10:45:11.755Z,2.30
2019-05-21T10:47:42.260Z,2.42
2019-05-21T10:50:11.950Z,2.23
2019-05-21T10:52:42.942Z,1.98
2019-05-21T10:57:44.512Z,1.70
2019-05-21T11:00:23.352Z,2.37
2019-05-21T11:03:00.215Z,1.93
2019-05-21T11:05:33.841Z,2.10
2019-05-21T11:08:22.803Z,2.52
2019-05-21T11:10:37.481Z,1.82
2019-05-21T11:13:07.272Z,2.20
2019-05-21T11:15:38.430Z,2.60
2019-05-21T11:18:11.239Z,2.25
2019-05-21T11:20:39.070Z,1.90
2019-05-21T11:23:08.582Z,1.90
2019-05-21T11:25:37.995Z,1.70
2019-05-21T11:28:07.384Z,2.25
2019-05-21T11:30:38.433Z,1.65
2019-05-21T11:33:07.800Z,1.70
2019-05-21T11:35:37.200Z,1.92
2019-05-21T11:38:06.701Z,2.15
2019-05-21T11:40:36.389Z,1.62
2019-05-21T11:43:05.840Z,1.92
2019-05-21T11:45:35.431Z,1.90
2019-05-21T11:48:07.854Z,2.55
2019-05-21T11:50:38.887Z,1.50
2019-05-21T11:53:08.332Z,1.50
2019-05-21T11:55:37.759Z,1.95
2019-05-21T11:58:07.117Z,1.00
2019-05-21T12:00:36.798Z,1.90
2019-05-21T12:03:06.323Z,1.32
2019-05-21T12:05:35.784Z,1.77
2019-05-21T12:08:05.716Z,1.70
2019-05-21T12:10:35.138Z,1.98
2019-05-21T12:13:05.368Z,1.76
2019-05-21T12:15:34.849Z,1.60
2019-05-21T12:18:04.360Z,1.65
2019-05-21T12:20:37.182Z,1.70
2019-05-21T12:23:05.747Z,1.42
2019-05-21T12:25:35.272Z,1.77
2019-05-21T12:28:05.693Z,2.20
2019-05-21T12:30:35.257Z,2.00
2019-05-21T12:33:04.818Z,2.10
2019-05-21T12:35:34.335Z,1.72
2019-05-21T12:38:03.883Z,2.05
2019-05-21T12:40:33.331Z,1.65
2019-05-21T12:43:03.793Z,1.50
2019-05-21T12:45:33.299Z,1.53
2019-05-21T12:48:02.659Z,1.42
2019-05-21T12:50:34.950Z,1.25
2019-05-21T12:53:04.470Z,1.77
2019-05-21T12:55:34.088Z,1.50
2019-05-21T12:58:06.920Z,1.57
2019-05-21T13:00:37.232Z,2.02
2019-05-21T13:03:06.595Z,1.90
2019-05-21T13:05:35.968Z,2.15
2019-05-21T13:08:05.846Z,1.32
2019-05-21T13:10:35.435Z,1.30
2019-05-21T13:13:05.934Z,1.82
2019-05-21T13:15:35.375Z,1.20
2019-05-21T13:18:05.403Z,1.45
2019-05-21T13:20:34.900Z,1.80
2019-05-21T13:23:04.673Z,2.00
2019-05-21T13:25:35.405Z,2.08
2019-05-21T13:28:05.675Z,1.75
2019-05-21T13:30:35.152Z,1.30
2019-05-21T13:33:06.158Z,1.42
2019-05-21T13:38:05.164Z,1.55
2019-05-21T13:40:34.604Z,1.75
2019-05-21T13:43:04.422Z,1.67
2019-05-21T13:45:34.861Z,1.67
2019-05-21T13:48:06.773Z,2.27
2019-05-21T13:50:36.216Z,1.52
2019-05-21T13:53:06.125Z,2.08
2019-05-21T13:55:35.659Z,2.00
2019-05-21T13:58:08.024Z,2.85
2019-05-21T14:00:41.656Z,2.20
2019-05-21T14:03:13.920Z,1.53
2019-05-21T14:05:43.373Z,2.23
2019-05-21T14:08:12.784Z,1.90
2019-05-21T14:10:42.180Z,2.05
2019-05-21T14:13:11.838Z,2.30
2019-05-21T14:15:41.481Z,2.02
2019-05-21T14:18:11.116Z,2.36
2019-05-21T14:20:40.660Z,1.90
2019-05-21T14:23:11.717Z,2.54
2019-05-21T14:28:11.272Z,1.95
2019-05-21T14:30:41.263Z,1.72
2019-05-21T14:33:10.792Z,2.14
2019-05-21T14:35:41.612Z,2.22
2019-05-21T14:38:10.963Z,1.90
2019-05-21T14:40:40.424Z,1.52
2019-05-21T14:43:11.672Z,1.92
2019-05-21T14:48:11.293Z,1.90
2019-05-21T14:50:42.300Z,2.33
2019-05-21T14:53:11.725Z,3.30
2019-05-21T14:55:41.186Z,2.47
2019-05-21T14:58:16.139Z,1.82
2019-05-21T15:00:45.911Z,2.17
2019-05-21T15:03:24.818Z,1.87
2019-05-21T15:05:49.097Z,1.72
2019-05-21T15:08:18.523Z,2.02
2019-05-21T15:10:49.569Z,2.15
2019-05-21T15:13:19.268Z,1.47
2019-05-21T15:15:50.153Z,2.00
2019-05-21T15:18:22.150Z,1.93
2019-05-21T15:20:52.482Z,2.17
2019-05-21T15:23:21.984Z,2.17
2019-05-21T15:25:53.048Z,3.35
2019-05-21T15:28:22.542Z,2.72
2019-05-21T15:30:51.968Z,2.25
2019-05-21T15:33:21.421Z,2.20
2019-05-21T15:35:53.574Z,2.37
2019-05-21T15:38:23.032Z,2.65
2019-05-21T15:41:08.406Z,2.25
2019-05-21T15:43:26.669Z,2.45
2019-05-21T15:45:56.030Z,2.63
2019-05-21T15:48:26.807Z,2.70
2019-05-21T15:53:26.735Z,2.70
2019-05-21T15:58:26.899Z,2.40
2019-05-21T16:00:57.560Z,2.40
2019-05-21T16:03:27.055Z,3.05
2019-05-21T16:05:56.593Z,2.55
2019-05-21T16:08:27.185Z,2.42
2019-05-21T16:10:56.719Z,3.27
2019-05-21T16:13:26.258Z,2.65
2019-05-21T16:15:57.246Z,2.62
2019-05-21T16:18:26.717Z,2.90
2019-05-21T16:20:56.129Z,2.17
2019-05-21T16:23:25.526Z,3.15
2019-05-21T16:25:55.237Z,2.90
2019-05-21T16:28:24.680Z,2.80
2019-05-21T16:30:54.138Z,2.22
2019-05-21T16:33:23.638Z,3.08
2019-05-21T16:35:53.107Z,3.70
2019-05-21T16:38:23.448Z,2.70
2019-05-21T16:40:52.910Z,2.95
2019-05-21T16:43:22.432Z,3.05
2019-05-21T16:45:53.489Z,2.65
2019-05-21T16:48:22.928Z,3.00
2019-05-21T16:50:52.336Z,2.42
2019-05-21T16:53:21.705Z,2.87
2019-05-21T16:55:51.088Z,2.58
2019-05-21T16:58:20.549Z,2.90
2019-05-21T17:00:49.916Z,2.75
2019-05-21T17:03:19.268Z,3.05
2019-05-21T17:05:48.717Z,3.12
2019-05-21T17:08:18.080Z,3.50
2019-05-21T17:10:49.113Z,3.12
2019-05-21T17:13:18.492Z,3.03
2019-05-21T17:15:47.867Z,3.55
2019-05-21T17:18:17.249Z,2.83
2019-05-21T17:20:46.690Z,3.50
2019-05-21T17:23:16.142Z,3.67
2019-05-21T17:25:46.688Z,2.90
2019-05-21T17:28:16.127Z,3.25
2019-05-21T17:30:45.911Z,3.87
2019-05-21T17:33:17.020Z,2.90
2019-05-21T17:35:46.437Z,2.80
2019-05-21T17:38:15.874Z,3.05
2019-05-21T17:40:45.428Z,2.45
2019-05-21T17:43:14.922Z,3.33
2019-05-21T17:45:44.446Z,3.35
2019-05-21T17:48:13.964Z,3.10
2019-05-21T17:50:43.496Z,2.80
2019-05-21T17:53:13.010Z,2.30
2019-05-21T17:55:43.764Z,3.17
2019-05-21T17:58:13.267Z,3.00
2019-05-21T18:00:45.430Z,2.70
2019-05-21T18:03:17.765Z,3.27
2019-05-21T18:05:48.710Z,3.02
2019-05-21T18:08:18.819Z,2.57
2019-05-21T18:10:48.732Z,2.87
2019-05-21T18:13:19.346Z,2.95
2019-05-21T18:15:49.666Z,2.37
2019-05-21T18:18:22.020Z,2.80
2019-05-21T18:20:51.448Z,2.85
2019-05-21T18:23:21.209Z,2.47
2019-05-21T18:25:53.840Z,2.58
2019-05-21T18:28:23.340Z,3.47
2019-05-21T18:30:53.217Z,3.25
2019-05-21T18:33:22.963Z,3.90
2019-05-21T18:35:52.634Z,3.02
2019-05-21T18:38:22.213Z,3.35
2019-05-21T18:40:51.765Z,2.70
2019-05-21T18:43:21.242Z,2.23
2019-05-21T18:45:53.469Z,2.60
2019-05-21T18:48:24.151Z,2.00
2019-05-21T18:50:56.394Z,2.42
2019-05-21T18:53:25.998Z,2.27
2019-05-21T18:55:55.539Z,2.40
2019-05-21T18:58:28.149Z,2.62
2019-05-21T19:00:57.563Z,2.22
2019-05-21T19:03:27.184Z,2.55
2019-05-21T19:05:56.686Z,2.90
2019-05-21T19:08:26.222Z,2.62
2019-05-21T19:10:55.634Z,1.62
2019-05-21T19:13:27.918Z,2.12
2019-05-21T19:15:59.065Z,2.10
2019-05-21T19:18:28.532Z,2.87
2019-05-21T19:20:57.983Z,2.05
2019-05-21T19:23:27.501Z,2.08
2019-05-21T19:26:00.018Z,2.10
2019-05-21T19:28:29.554Z,2.30
2019-05-21T19:30:58.978Z,2.58
2019-05-21T19:33:28.404Z,1.98
2019-05-21T19:35:57.812Z,2.60
2019-05-21T19:38:27.361Z,2.10
2019-05-21T19:40:56.918Z,1.47
2019-05-21T19:43:26.292Z,2.52
2019-05-21T19:45:55.709Z,2.25
2019-05-21T19:48:25.151Z,2.08
2019-05-21T19:51:00.125Z,1.80
2019-05-21T19:53:27.767Z,1.83
2019-05-21T19:55:57.159Z,2.02
2019-05-21T19:58:26.667Z,2.05
2019-05-21T20:00:56.236Z,2.42
2019-05-21T20:03:28.948Z,2.37
2019-05-21T20:05:58.661Z,1.77
2019-05-21T20:08:31.736Z,2.15
2019-05-21T20:11:01.338Z,1.87
2019-05-21T20:13:32.936Z,2.35
2019-05-21T20:16:03.059Z,2.40
2019-05-21T20:18:35.110Z,2.27
2019-05-21T20:21:06.207Z,2.98
2019-05-21T20:23:38.741Z,2.45
2019-05-21T20:26:13.098Z,2.70
2019-05-21T20:28:45.982Z,2.00
2019-05-21T20:31:16.685Z,3.42
2019-05-21T20:33:48.017Z,1.87
2019-05-21T20:36:18.341Z,2.57
2019-05-21T20:38:47.767Z,1.67
2019-05-21T20:41:17.827Z,2.47
2019-05-21T20:43:58.574Z,2.10
2019-05-21T20:46:18.710Z,1.65
2019-05-21T20:48:49.030Z,1.75
2019-05-21T20:51:19.113Z,1.70
2019-05-21T20:53:50.152Z,2.58
2019-05-21T20:56:19.583Z,2.00
2019-05-21T20:58:49.175Z,2.05
2019-05-21T21:01:19.048Z,2.57
2019-05-21T21:03:48.982Z,2.65
2019-05-21T21:06:34.445Z,2.40
2019-05-21T21:08:50.343Z,2.27
2019-05-21T21:11:23.109Z,2.58
2019-05-21T21:13:54.112Z,2.65
2019-05-21T21:16:26.241Z,2.70
2019-05-21T21:18:56.077Z,3.33
2019-05-21T21:21:26.078Z,2.95
2019-05-21T21:23:56.585Z,3.62
2019-05-21T21:26:26.961Z,3.87
2019-05-21T21:28:57.964Z,3.15
2019-05-21T21:31:27.338Z,3.70
2019-05-21T21:33:56.781Z,3.52
2019-05-21T21:36:26.691Z,4.08
2019-05-21T21:38:56.142Z,4.08
2019-05-21T21:41:27.889Z,3.22
2019-05-21T21:43:57.268Z,3.95
2019-05-21T21:46:26.637Z,3.92
2019-05-21T21:48:56.761Z,3.58
2019-05-21T21:51:26.187Z,4.08
2019-05-21T21:53:58.584Z,2.60
2019-05-21T21:56:27.955Z,3.72
2019-05-21T21:58:57.371Z,3.65
2019-05-21T22:01:34.055Z,3.20
2019-05-21T22:04:05.880Z,3.15
2019-05-21T22:06:37.711Z,2.83
2019-05-21T22:09:08.928Z,3.55
2019-05-21T22:11:38.666Z,4.30
2019-05-21T22:14:08.414Z,4.22
2019-05-21T22:16:37.880Z,4.53
2019-05-21T22:19:08.227Z,4.58
2019-05-21T22:21:39.307Z,3.83
2019-05-21T22:24:09.036Z,4.70
2019-05-21T22:26:38.828Z,5.00
2019-05-21T22:29:08.201Z,4.70
2019-05-21T22:31:37.746Z,4.87
2019-05-21T22:34:08.220Z,4.10
2019-05-21T22:36:37.581Z,3.72
2019-05-21T22:39:09.490Z,3.85
2019-05-21T22:41:38.872Z,4.12
2019-05-21T22:44:08.480Z,3.30
2019-05-21T22:46:37.853Z,4.10
2019-05-21T22:49:07.208Z,4.12
2019-05-21T22:51:36.635Z,3.90
2019-05-21T22:54:06.001Z,4.15
2019-05-21T22:56:35.416Z,3.60
2019-05-21T22:59:05.411Z,3.95
2019-05-21T23:01:35.949Z,4.17
2019-05-21T23:04:05.720Z,3.77
2019-05-21T23:06:36.114Z,3.72
2019-05-21T23:09:07.296Z,4.08
2019-05-21T23:11:36.832Z,4.27
2019-05-21T23:14:06.599Z,3.92
2019-05-21T23:16:37.823Z,4.05
2019-05-21T23:19:16.642Z,4.40
2019-05-21T23:21:49.567Z,4.37
2019-05-21T23:24:19.175Z,3.98
2019-05-21T23:26:49.384Z,4.08
2019-05-21T23:29:19.414Z,4.47
2019-05-21T23:31:49.019Z,3.92
2019-05-21T23:34:19.322Z,3.33
2019-05-21T23:36:49.107Z,4.30
2019-05-21T23:39:21.294Z,3.47
2019-05-21T23:41:51.272Z,3.27
2019-05-21T23:44:21.365Z,3.73
2019-05-21T23:46:53.540Z,3.37
2019-05-21T23:49:23.184Z,4.30
2019-05-21T23:51:54.941Z,3.70
2019-05-21T23:54:24.388Z,3.83
2019-05-21T23:56:55.474Z,4.33
2019-05-21T23:59:25.207Z,4.20
